sensor_id;sensor_type;location;lat;lon;timestamp;P1;durP1;ratioP1;P2;durP2;ratioP2
73670;SDS011;61968;48.178;11.566;2023-09-19T00:01:32;2.58;;;0.63;;
73670;SDS011;61968;48.178;11.566;2023-09-19T00:04:00;2.33;;;0.65;;
73670;SDS011;61968;48.178;11.566;2023-09-19T00:06:28;1.33;;;0.70;;
73670;SDS011;61968;48.178;11.566;2023-09-19T00:08:56;1.05;;;0.80;;
73670;SDS011;61968;48.178;11.566;2023-09-19T00:11:23;0.90;;;0.60;;
73670;SDS011;61968;48.178;11.566;2023-09-19T00:13:51;1.55;;;0.80;;
73670;SDS011;61968;48.178;11.566;2023-09-19T00:16:17;0.93;;;0.70;;
73670;SDS011;61968;48.178;11.566;2023-09-19T00:18:44;0.50;;;0.50;;
73670;SDS011;61968;48.178;11.566;2023-09-19T00:21:13;0.70;;;0.70;;
73670;SDS011;61968;48.178;11.566;2023-09-19T00:23:40;1.50;;;0.70;;
73670;SDS011;61968;48.178;11.566;2023-09-19T00:26:07;0.50;;;0.50;;
73670;SDS011;61968;48.178;11.566;2023-09-19T00:28:33;0.50;;;0.50;;
73670;SDS011;61968;48.178;11.566;2023-09-19T00:31:00;0.82;;;0.68;;
73670;SDS011;61968;48.178;11.566;2023-09-19T00:33:27;1.92;;;0.90;;
73670;SDS011;61968;48.178;11.566;2023-09-19T00:35:55;2.67;;;0.55;;
73670;SDS011;61968;48.178;11.566;2023-09-19T00:38:23;3.13;;;1.10;;
73670;SDS011;61968;48.178;11.566;2023-09-19T00:40:52;1.88;;;0.80;;
73670;SDS011;61968;48.178;11.566;2023-09-19T00:43:19;1.05;;;0.57;;
73670;SDS011;61968;48.178;11.566;2023-09-19T00:45:46;1.67;;;0.70;;
73670;SDS011;61968;48.178;11.566;2023-09-19T00:48:16;1.45;;;0.70;;
73670;SDS011;61968;48.178;11.566;2023-09-19T00:50:43;1.65;;;0.80;;
73670;SDS011;61968;48.178;11.566;2023-09-19T00:53:13;1.40;;;1.30;;
73670;SDS011;61968;48.178;11.566;2023-09-19T00:55:44;1.35;;;0.70;;
73670;SDS011;61968;48.178;11.566;2023-09-19T00:58:11;2.17;;;0.80;;
73670;SDS011;61968;48.178;11.566;2023-09-19T01:00:38;0.77;;;0.77;;
73670;SDS011;61968;48.178;11.566;2023-09-19T01:03:07;0.63;;;0.63;;
73670;SDS011;61968;48.178;11.566;2023-09-19T01:05:34;0.80;;;0.80;;
73670;SDS011;61968;48.178;11.566;2023-09-19T01:08:01;0.77;;;0.60;;
73670;SDS011;61968;48.178;11.566;2023-09-19T01:10:28;2.67;;;1.00;;
73670;SDS011;61968;48.178;11.566;2023-09-19T01:12:58;1.30;;;0.80;;
73670;SDS011;61968;48.178;11.566;2023-09-19T01:15:32;2.22;;;1.35;;
73670;SDS011;61968;48.178;11.566;2023-09-19T01:18:11;1.50;;;0.40;;
73670;SDS011;61968;48.178;11.566;2023-09-19T01:20:50;1.17;;;0.65;;
73670;SDS011;61968;48.178;11.566;2023-09-19T01:23:23;0.50;;;0.50;;
73670;SDS011;61968;48.178;11.566;2023-09-19T01:26:07;3.22;;;1.00;;
73670;SDS011;61968;48.178;11.566;2023-09-19T01:28:53;1.48;;;0.90;;
73670;SDS011;61968;48.178;11.566;2023-09-19T01:31:22;1.35;;;0.70;;
73670;SDS011;61968;48.178;11.566;2023-09-19T01:33:57;1.50;;;0.70;;
73670;SDS011;61968;48.178;11.566;2023-09-19T01:36:29;1.00;;;0.90;;
73670;SDS011;61968;48.178;11.566;2023-09-19T01:38:59;0.68;;;0.55;;
73670;SDS011;61968;48.178;11.566;2023-09-19T01:41:33;1.20;;;0.70;;
73670;SDS011;61968;48.178;11.566;2023-09-19T01:44:17;1.25;;;0.70;;
73670;SDS011;61968;48.178;11.566;2023-09-19T01:46:52;2.72;;;0.82;;
73670;SDS011;61968;48.178;11.566;2023-09-19T01:49:27;0.50;;;0.50;;
73670;SDS011;61968;48.178;11.566;2023-09-19T01:52:00;1.30;;;0.77;;
73670;SDS011;61968;48.178;11.566;2023-09-19T01:54:33;2.08;;;0.57;;
73670;SDS011;61968;48.178;11.566;2023-09-19T01:57:08;0.60;;;0.60;;
73670;SDS011;61968;48.178;11.566;2023-09-19T01:59:41;1.52;;;0.55;;
73670;SDS011;61968;48.178;11.566;2023-09-19T02:02:13;0.65;;;0.65;;
73670;SDS011;61968;48.178;11.566;2023-09-19T02:04:41;1.63;;;1.27;;
73670;SDS011;61968;48.178;11.566;2023-09-19T02:07:07;1.52;;;0.50;;
73670;SDS011;61968;48.178;11.566;2023-09-19T02:09:34;0.70;;;0.57;;
73670;SDS011;61968;48.178;11.566;2023-09-19T02:12:03;0.40;;;0.40;;
73670;SDS011;61968;48.178;11.566;2023-09-19T02:14:30;0.95;;;0.95;;
73670;SDS011;61968;48.178;11.566;2023-09-19T02:16:57;5.35;;;0.77;;
73670;SDS011;61968;48.178;11.566;2023-09-19T02:19:26;1.63;;;0.95;;
73670;SDS011;61968;48.178;11.566;2023-09-19T02:21:53;1.58;;;0.65;;
73670;SDS011;61968;48.178;11.566;2023-09-19T02:24:19;1.25;;;0.70;;
73670;SDS011;61968;48.178;11.566;2023-09-19T02:26:46;4.97;;;1.55;;
73670;SDS011;61968;48.178;11.566;2023-09-19T02:29:12;0.82;;;0.57;;
73670;SDS011;61968;48.178;11.566;2023-09-19T02:31:39;1.15;;;1.05;;
73670;SDS011;61968;48.178;11.566;2023-09-19T02:34:05;1.70;;;0.60;;
73670;SDS011;61968;48.178;11.566;2023-09-19T02:36:35;1.55;;;0.65;;
73670;SDS011;61968;48.178;11.566;2023-09-19T02:39:02;0.77;;;0.73;;
73670;SDS011;61968;48.178;11.566;2023-09-19T02:41:29;1.10;;;0.52;;
73670;SDS011;61968;48.178;11.566;2023-09-19T02:43:56;1.33;;;0.90;;
73670;SDS011;61968;48.178;11.566;2023-09-19T02:46:24;0.68;;;0.68;;
73670;SDS011;61968;48.178;11.566;2023-09-19T02:48:50;1.38;;;0.70;;
73670;SDS011;61968;48.178;11.566;2023-09-19T02:51:17;1.08;;;0.65;;
73670;SDS011;61968;48.178;11.566;2023-09-19T02:53:45;0.60;;;0.60;;
73670;SDS011;61968;48.178;11.566;2023-09-19T02:56:12;0.68;;;0.57;;
73670;SDS011;61968;48.178;11.566;2023-09-19T02:58:40;1.08;;;0.52;;
73670;SDS011;61968;48.178;11.566;2023-09-19T03:01:08;0.70;;;0.57;;
73670;SDS011;61968;48.178;11.566;2023-09-19T03:03:36;1.15;;;0.60;;
73670;SDS011;61968;48.178;11.566;2023-09-19T03:06:04;0.63;;;0.63;;
73670;SDS011;61968;48.178;11.566;2023-09-19T03:08:31;0.60;;;0.60;;
73670;SDS011;61968;48.178;11.566;2023-09-19T03:11:04;3.05;;;0.80;;
73670;SDS011;61968;48.178;11.566;2023-09-19T03:13:32;2.35;;;0.60;;
73670;SDS011;61968;48.178;11.566;2023-09-19T03:16:01;0.98;;;0.75;;
73670;SDS011;61968;48.178;11.566;2023-09-19T03:18:30;2.25;;;0.60;;
73670;SDS011;61968;48.178;11.566;2023-09-19T03:20:57;1.75;;;0.70;;
73670;SDS011;61968;48.178;11.566;2023-09-19T03:23:25;0.80;;;0.80;;
73670;SDS011;61968;48.178;11.566;2023-09-19T03:25:52;5.13;;;0.90;;
73670;SDS011;61968;48.178;11.566;2023-09-19T03:28:20;1.48;;;0.63;;
73670;SDS011;61968;48.178;11.566;2023-09-19T03:30:56;2.25;;;0.68;;
73670;SDS011;61968;48.178;11.566;2023-09-19T03:33:24;0.52;;;0.52;;
73670;SDS011;61968;48.178;11.566;2023-09-19T03:35:51;1.00;;;0.70;;
73670;SDS011;61968;48.178;11.566;2023-09-19T03:38:18;0.80;;;0.80;;
73670;SDS011;61968;48.178;11.566;2023-09-19T03:40:46;1.80;;;0.68;;
73670;SDS011;61968;48.178;11.566;2023-09-19T03:43:13;0.77;;;0.77;;
73670;SDS011;61968;48.178;11.566;2023-09-19T03:45:41;2.20;;;0.93;;
73670;SDS011;61968;48.178;11.566;2023-09-19T03:48:08;0.43;;;0.40;;
73670;SDS011;61968;48.178;11.566;2023-09-19T03:50:35;1.05;;;0.75;;
73670;SDS011;61968;48.178;11.566;2023-09-19T03:53:02;3.60;;;0.80;;
73670;SDS011;61968;48.178;11.566;2023-09-19T03:55:29;1.83;;;0.70;;
73670;SDS011;61968;48.178;11.566;2023-09-19T03:57:55;1.05;;;0.93;;
73670;SDS011;61968;48.178;11.566;2023-09-19T04:00:22;1.67;;;0.82;;
73670;SDS011;61968;48.178;11.566;2023-09-19T04:02:52;3.25;;;0.90;;
73670;SDS011;61968;48.178;11.566;2023-09-19T04:05:21;3.15;;;1.30;;
73670;SDS011;61968;48.178;11.566;2023-09-19T04:07:47;6.60;;;1.63;;
73670;SDS011;61968;48.178;11.566;2023-09-19T04:10:15;17.75;;;13.02;;
73670;SDS011;61968;48.178;11.566;2023-09-19T04:12:49;19.15;;;11.70;;
73670;SDS011;61968;48.178;11.566;2023-09-19T04:15:17;13.13;;;3.28;;
73670;SDS011;61968;48.178;11.566;2023-09-19T04:17:43;6.07;;;3.30;;
73670;SDS011;61968;48.178;11.566;2023-09-19T04:20:11;11.95;;;2.85;;
73670;SDS011;61968;48.178;11.566;2023-09-19T04:22:38;6.00;;;2.83;;
73670;SDS011;61968;48.178;11.566;2023-09-19T04:25:05;7.22;;;1.15;;
73670;SDS011;61968;48.178;11.566;2023-09-19T04:27:32;2.40;;;1.98;;
73670;SDS011;61968;48.178;11.566;2023-09-19T04:29:59;4.68;;;1.38;;
73670;SDS011;61968;48.178;11.566;2023-09-19T04:32:26;3.65;;;1.15;;
73670;SDS011;61968;48.178;11.566;2023-09-19T04:34:54;3.83;;;0.75;;
73670;SDS011;61968;48.178;11.566;2023-09-19T04:37:26;1.52;;;0.90;;
73670;SDS011;61968;48.178;11.566;2023-09-19T04:39:53;1.42;;;0.90;;
73670;SDS011;61968;48.178;11.566;2023-09-19T04:42:20;1.70;;;1.10;;
73670;SDS011;61968;48.178;11.566;2023-09-19T04:44:46;2.80;;;1.08;;
73670;SDS011;61968;48.178;11.566;2023-09-19T04:47:14;2.03;;;1.05;;
73670;SDS011;61968;48.178;11.566;2023-09-19T04:49:41;1.13;;;1.00;;
73670;SDS011;61968;48.178;11.566;2023-09-19T04:52:07;1.70;;;1.10;;
73670;SDS011;61968;48.178;11.566;2023-09-19T04:54:35;1.60;;;0.95;;
73670;SDS011;61968;48.178;11.566;2023-09-19T04:57:02;5.13;;;1.08;;
73670;SDS011;61968;48.178;11.566;2023-09-19T04:59:31;0.80;;;0.80;;
73670;SDS011;61968;48.178;11.566;2023-09-19T05:01:57;2.65;;;1.23;;
73670;SDS011;61968;48.178;11.566;2023-09-19T05:04:24;2.67;;;1.52;;
73670;SDS011;61968;48.178;11.566;2023-09-19T05:06:51;3.83;;;1.05;;
73670;SDS011;61968;48.178;11.566;2023-09-19T05:09:17;3.33;;;1.30;;
73670;SDS011;61968;48.178;11.566;2023-09-19T05:11:46;7.18;;;1.35;;
73670;SDS011;61968;48.178;11.566;2023-09-19T05:14:13;6.13;;;1.02;;
73670;SDS011;61968;48.178;11.566;2023-09-19T05:16:39;3.78;;;0.88;;
73670;SDS011;61968;48.178;11.566;2023-09-19T05:19:06;3.83;;;1.00;;
73670;SDS011;61968;48.178;11.566;2023-09-19T05:21:36;3.70;;;0.75;;
73670;SDS011;61968;48.178;11.566;2023-09-19T05:24:04;5.88;;;2.67;;
73670;SDS011;61968;48.178;11.566;2023-09-19T05:26:31;1.60;;;1.02;;
73670;SDS011;61968;48.178;11.566;2023-09-19T05:28:59;4.88;;;1.02;;
73670;SDS011;61968;48.178;11.566;2023-09-19T05:31:28;2.50;;;1.15;;
73670;SDS011;61968;48.178;11.566;2023-09-19T05:33:55;3.85;;;1.25;;
73670;SDS011;61968;48.178;11.566;2023-09-19T05:36:22;1.45;;;1.00;;
73670;SDS011;61968;48.178;11.566;2023-09-19T05:38:48;1.15;;;0.80;;
73670;SDS011;61968;48.178;11.566;2023-09-19T05:41:18;0.98;;;0.80;;
73670;SDS011;61968;48.178;11.566;2023-09-19T05:43:44;1.60;;;1.20;;
73670;SDS011;61968;48.178;11.566;2023-09-19T05:46:12;2.92;;;1.10;;
73670;SDS011;61968;48.178;11.566;2023-09-19T05:48:40;3.50;;;1.08;;
73670;SDS011;61968;48.178;11.566;2023-09-19T05:51:09;1.85;;;0.80;;
73670;SDS011;61968;48.178;11.566;2023-09-19T05:53:35;1.25;;;1.00;;
73670;SDS011;61968;48.178;11.566;2023-09-19T05:56:02;2.33;;;0.85;;
73670;SDS011;61968;48.178;11.566;2023-09-19T05:58:29;4.35;;;0.98;;
73670;SDS011;61968;48.178;11.566;2023-09-19T06:00:55;1.25;;;0.95;;
73670;SDS011;61968;48.178;11.566;2023-09-19T06:03:23;4.00;;;1.30;;
73670;SDS011;61968;48.178;11.566;2023-09-19T06:05:50;6.35;;;1.08;;
73670;SDS011;61968;48.178;11.566;2023-09-19T06:08:18;3.08;;;1.08;;
73670;SDS011;61968;48.178;11.566;2023-09-19T06:10:44;2.13;;;0.90;;
73670;SDS011;61968;48.178;11.566;2023-09-19T06:13:12;1.05;;;0.95;;
73670;SDS011;61968;48.178;11.566;2023-09-19T06:15:38;1.00;;;0.70;;
73670;SDS011;61968;48.178;11.566;2023-09-19T06:18:10;1.05;;;0.93;;
73670;SDS011;61968;48.178;11.566;2023-09-19T06:20:41;1.60;;;0.70;;
73670;SDS011;61968;48.178;11.566;2023-09-19T06:23:09;1.17;;;0.73;;
73670;SDS011;61968;48.178;11.566;2023-09-19T06:25:36;1.08;;;0.90;;
73670;SDS011;61968;48.178;11.566;2023-09-19T06:28:02;2.03;;;0.93;;
73670;SDS011;61968;48.178;11.566;2023-09-19T06:30:30;0.88;;;0.70;;
73670;SDS011;61968;48.178;11.566;2023-09-19T06:32:57;0.70;;;0.68;;
73670;SDS011;61968;48.178;11.566;2023-09-19T06:35:24;3.47;;;0.90;;
73670;SDS011;61968;48.178;11.566;2023-09-19T06:37:53;1.60;;;0.70;;
73670;SDS011;61968;48.178;11.566;2023-09-19T06:40:22;0.80;;;0.70;;
73670;SDS011;61968;48.178;11.566;2023-09-19T06:42:50;1.77;;;0.80;;
73670;SDS011;61968;48.178;11.566;2023-09-19T06:45:18;0.70;;;0.30;;
73670;SDS011;61968;48.178;11.566;2023-09-19T06:47:44;1.33;;;0.80;;
73670;SDS011;61968;48.178;11.566;2023-09-19T06:50:14;0.63;;;0.63;;
73670;SDS011;61968;48.178;11.566;2023-09-19T06:52:43;1.42;;;0.68;;
73670;SDS011;61968;48.178;11.566;2023-09-19T06:55:14;2.53;;;1.00;;
73670;SDS011;61968;48.178;11.566;2023-09-19T06:57:41;0.52;;;0.52;;
73670;SDS011;61968;48.178;11.566;2023-09-19T07:00:08;1.05;;;0.80;;
73670;SDS011;61968;48.178;11.566;2023-09-19T07:05:07;3.40;;;0.70;;
73670;SDS011;61968;48.178;11.566;2023-09-19T07:07:34;2.25;;;0.80;;
73670;SDS011;61968;48.178;11.566;2023-09-19T07:10:01;0.80;;;0.57;;
73670;SDS011;61968;48.178;11.566;2023-09-19T07:12:28;1.95;;;0.60;;
73670;SDS011;61968;48.178;11.566;2023-09-19T07:14:55;1.33;;;0.90;;
73670;SDS011;61968;48.178;11.566;2023-09-19T07:17:22;0.73;;;0.63;;
73670;SDS011;61968;48.178;11.566;2023-09-19T07:19:49;1.02;;;0.73;;
73670;SDS011;61968;48.178;11.566;2023-09-19T07:22:15;1.95;;;1.17;;
73670;SDS011;61968;48.178;11.566;2023-09-19T07:24:42;1.10;;;0.63;;
73670;SDS011;61968;48.178;11.566;2023-09-19T07:27:08;0.63;;;0.60;;
73670;SDS011;61968;48.178;11.566;2023-09-19T07:29:36;2.00;;;0.68;;
73670;SDS011;61968;48.178;11.566;2023-09-19T07:32:03;1.75;;;0.75;;
73670;SDS011;61968;48.178;11.566;2023-09-19T07:34:31;1.85;;;0.75;;
73670;SDS011;61968;48.178;11.566;2023-09-19T07:36:57;1.48;;;0.90;;
73670;SDS011;61968;48.178;11.566;2023-09-19T07:39:24;0.52;;;0.52;;
73670;SDS011;61968;48.178;11.566;2023-09-19T07:41:50;0.73;;;0.73;;
73670;SDS011;61968;48.178;11.566;2023-09-19T07:44:16;1.63;;;0.75;;
73670;SDS011;61968;48.178;11.566;2023-09-19T07:46:45;1.30;;;0.85;;
73670;SDS011;61968;48.178;11.566;2023-09-19T07:49:14;0.93;;;0.68;;
73670;SDS011;61968;48.178;11.566;2023-09-19T07:51:42;0.82;;;0.52;;
73670;SDS011;61968;48.178;11.566;2023-09-19T07:54:11;2.47;;;0.70;;
73670;SDS011;61968;48.178;11.566;2023-09-19T07:56:39;2.05;;;0.50;;
73670;SDS011;61968;48.178;11.566;2023-09-19T07:59:06;1.83;;;0.60;;
73670;SDS011;61968;48.178;11.566;2023-09-19T08:01:33;1.02;;;0.73;;
73670;SDS011;61968;48.178;11.566;2023-09-19T08:04:02;2.20;;;0.50;;
73670;SDS011;61968;48.178;11.566;2023-09-19T08:06:28;0.75;;;0.63;;
73670;SDS011;61968;48.178;11.566;2023-09-19T08:08:55;1.38;;;1.27;;
73670;SDS011;61968;48.178;11.566;2023-09-19T08:11:22;4.03;;;0.93;;
73670;SDS011;61968;48.178;11.566;2023-09-19T08:13:49;0.80;;;0.65;;
73670;SDS011;61968;48.178;11.566;2023-09-19T08:16:17;2.65;;;0.82;;
73670;SDS011;61968;48.178;11.566;2023-09-19T08:18:46;0.68;;;0.55;;
73670;SDS011;61968;48.178;11.566;2023-09-19T08:21:15;0.50;;;0.50;;
73670;SDS011;61968;48.178;11.566;2023-09-19T08:23:41;1.10;;;0.60;;
73670;SDS011;61968;48.178;11.566;2023-09-19T08:26:08;1.20;;;0.40;;
73670;SDS011;61968;48.178;11.566;2023-09-19T08:28:35;0.50;;;0.50;;
73670;SDS011;61968;48.178;11.566;2023-09-19T08:31:02;1.48;;;1.17;;
73670;SDS011;61968;48.178;11.566;2023-09-19T08:33:31;2.80;;;0.68;;
73670;SDS011;61968;48.178;11.566;2023-09-19T08:35:57;3.35;;;1.08;;
73670;SDS011;61968;48.178;11.566;2023-09-19T08:38:25;3.72;;;0.88;;
73670;SDS011;61968;48.178;11.566;2023-09-19T08:40:56;0.93;;;0.60;;
73670;SDS011;61968;48.178;11.566;2023-09-19T08:43:23;3.00;;;0.90;;
73670;SDS011;61968;48.178;11.566;2023-09-19T08:45:50;2.13;;;0.80;;
73670;SDS011;61968;48.178;11.566;2023-09-19T08:48:22;1.08;;;0.77;;
73670;SDS011;61968;48.178;11.566;2023-09-19T08:50:51;1.45;;;0.50;;
73670;SDS011;61968;48.178;11.566;2023-09-19T08:53:21;0.80;;;0.80;;
73670;SDS011;61968;48.178;11.566;2023-09-19T08:55:57;0.40;;;0.40;;
73670;SDS011;61968;48.178;11.566;2023-09-19T08:58:28;0.95;;;0.73;;
73670;SDS011;61968;48.178;11.566;2023-09-19T09:01:00;0.85;;;0.70;;
73670;SDS011;61968;48.178;11.566;2023-09-19T09:03:29;1.02;;;0.80;;
73670;SDS011;61968;48.178;11.566;2023-09-19T09:05:58;0.82;;;0.50;;
73670;SDS011;61968;48.178;11.566;2023-09-19T09:08:27;2.00;;;0.93;;
73670;SDS011;61968;48.178;11.566;2023-09-19T09:10:56;1.90;;;1.02;;
73670;SDS011;61968;48.178;11.566;2023-09-19T09:13:23;2.17;;;0.80;;
73670;SDS011;61968;48.178;11.566;2023-09-19T09:15:51;1.55;;;0.75;;
73670;SDS011;61968;48.178;11.566;2023-09-19T09:18:19;3.67;;;1.10;;
73670;SDS011;61968;48.178;11.566;2023-09-19T09:20:46;2.25;;;0.63;;
73670;SDS011;61968;48.178;11.566;2023-09-19T09:23:13;0.50;;;0.50;;
73670;SDS011;61968;48.178;11.566;2023-09-19T09:25:48;2.42;;;0.77;;
73670;SDS011;61968;48.178;11.566;2023-09-19T09:28:19;1.15;;;1.05;;
73670;SDS011;61968;48.178;11.566;2023-09-19T09:30:47;1.23;;;1.08;;
73670;SDS011;61968;48.178;11.566;2023-09-19T09:33:14;0.63;;;0.63;;
73670;SDS011;61968;48.178;11.566;2023-09-19T09:35:48;1.20;;;0.80;;
73670;SDS011;61968;48.178;11.566;2023-09-19T09:38:17;0.70;;;0.60;;
73670;SDS011;61968;48.178;11.566;2023-09-19T09:40:49;2.17;;;0.50;;
73670;SDS011;61968;48.178;11.566;2023-09-19T09:43:27;1.80;;;0.70;;
73670;SDS011;61968;48.178;11.566;2023-09-19T09:46:09;1.83;;;0.73;;
73670;SDS011;61968;48.178;11.566;2023-09-19T09:49:04;2.72;;;0.75;;
73670;SDS011;61968;48.178;11.566;2023-09-19T09:51:41;2.35;;;0.95;;
73670;SDS011;61968;48.178;11.566;2023-09-19T09:54:09;1.70;;;0.80;;
73670;SDS011;61968;48.178;11.566;2023-09-19T09:56:42;1.15;;;0.60;;
73670;SDS011;61968;48.178;11.566;2023-09-19T09:59:18;0.82;;;0.57;;
73670;SDS011;61968;48.178;11.566;2023-09-19T10:01:48;1.20;;;1.10;;
73670;SDS011;61968;48.178;11.566;2023-09-19T10:04:26;1.65;;;0.95;;
73670;SDS011;61968;48.178;11.566;2023-09-19T10:06:55;1.10;;;0.90;;
73670;SDS011;61968;48.178;11.566;2023-09-19T10:09:22;2.17;;;0.70;;
73670;SDS011;61968;48.178;11.566;2023-09-19T10:12:05;0.57;;;0.40;;
73670;SDS011;61968;48.178;11.566;2023-09-19T10:14:35;1.20;;;0.60;;
73670;SDS011;61968;48.178;11.566;2023-09-19T10:17:05;1.17;;;0.70;;
73670;SDS011;61968;48.178;11.566;2023-09-19T10:19:37;1.23;;;0.73;;
73670;SDS011;61968;48.178;11.566;2023-09-19T10:22:11;1.98;;;0.80;;
73670;SDS011;61968;48.178;11.566;2023-09-19T10:24:45;1.67;;;0.85;;
73670;SDS011;61968;48.178;11.566;2023-09-19T10:27:14;0.77;;;0.70;;
73670;SDS011;61968;48.178;11.566;2023-09-19T10:29:42;1.17;;;0.90;;
73670;SDS011;61968;48.178;11.566;2023-09-19T10:32:12;1.30;;;0.90;;
73670;SDS011;61968;48.178;11.566;2023-09-19T10:34:44;1.23;;;1.00;;
73670;SDS011;61968;48.178;11.566;2023-09-19T10:37:13;4.95;;;3.17;;
73670;SDS011;61968;48.178;11.566;2023-09-19T10:39:44;1.98;;;1.08;;
73670;SDS011;61968;48.178;11.566;2023-09-19T10:42:13;4.28;;;2.38;;
73670;SDS011;61968;48.178;11.566;2023-09-19T10:44:43;1.73;;;1.00;;
73670;SDS011;61968;48.178;11.566;2023-09-19T10:47:15;1.15;;;1.10;;
73670;SDS011;61968;48.178;11.566;2023-09-19T10:49:44;1.25;;;1.15;;
73670;SDS011;61968;48.178;11.566;2023-09-19T10:52:12;1.13;;;0.98;;
73670;SDS011;61968;48.178;11.566;2023-09-19T10:54:45;1.85;;;0.90;;
73670;SDS011;61968;48.178;11.566;2023-09-19T10:57:19;1.27;;;0.88;;
73670;SDS011;61968;48.178;11.566;2023-09-19T11:00:01;1.48;;;1.02;;
73670;SDS011;61968;48.178;11.566;2023-09-19T11:05:43;1.70;;;0.90;;
73670;SDS011;61968;48.178;11.566;2023-09-19T11:08:29;1.67;;;0.80;;
73670;SDS011;61968;48.178;11.566;2023-09-19T11:10:57;0.60;;;0.52;;
73670;SDS011;61968;48.178;11.566;2023-09-19T11:13:26;3.53;;;0.90;;
73670;SDS011;61968;48.178;11.566;2023-09-19T11:18:52;2.28;;;0.88;;
73670;SDS011;61968;48.178;11.566;2023-09-19T11:21:41;3.25;;;0.93;;
73670;SDS011;61968;48.178;11.566;2023-09-19T11:24:30;3.25;;;1.88;;
73670;SDS011;61968;48.178;11.566;2023-09-19T11:27:10;2.55;;;1.20;;
73670;SDS011;61968;48.178;11.566;2023-09-19T11:29:40;1.45;;;0.70;;
73670;SDS011;61968;48.178;11.566;2023-09-19T11:32:07;10.52;;;3.58;;
73670;SDS011;61968;48.178;11.566;2023-09-19T11:34:38;20.63;;;9.52;;
73670;SDS011;61968;48.178;11.566;2023-09-19T11:40:47;6.03;;;2.10;;
73670;SDS011;61968;48.178;11.566;2023-09-19T11:43:29;4.50;;;2.05;;
73670;SDS011;61968;48.178;11.566;2023-09-19T11:46:07;1.95;;;0.80;;
73670;SDS011;61968;48.178;11.566;2023-09-19T11:48:40;4.47;;;1.92;;
73670;SDS011;61968;48.178;11.566;2023-09-19T11:51:15;13.20;;;4.13;;
73670;SDS011;61968;48.178;11.566;2023-09-19T11:53:52;5.30;;;2.88;;
73670;SDS011;61968;48.178;11.566;2023-09-19T11:56:21;3.47;;;1.73;;
73670;SDS011;61968;48.178;11.566;2023-09-19T11:58:51;5.35;;;1.00;;
73670;SDS011;61968;48.178;11.566;2023-09-19T12:01:24;3.67;;;0.73;;
73670;SDS011;61968;48.178;11.566;2023-09-19T12:03:55;1.00;;;0.85;;
73670;SDS011;61968;48.178;11.566;2023-09-19T12:06:23;3.60;;;1.50;;
73670;SDS011;61968;48.178;11.566;2023-09-19T12:08:50;1.50;;;0.90;;
73670;SDS011;61968;48.178;11.566;2023-09-19T12:11:19;4.10;;;0.80;;
73670;SDS011;61968;48.178;11.566;2023-09-19T12:13:48;4.38;;;1.30;;
73670;SDS011;61968;48.178;11.566;2023-09-19T12:16:15;6.55;;;1.38;;
73670;SDS011;61968;48.178;11.566;2023-09-19T12:18:44;1.40;;;1.00;;
73670;SDS011;61968;48.178;11.566;2023-09-19T12:21:21;2.05;;;0.90;;
73670;SDS011;61968;48.178;11.566;2023-09-19T12:26:39;8.50;;;2.38;;
73670;SDS011;61968;48.178;11.566;2023-09-19T12:29:12;23.10;;;9.30;;
73670;SDS011;61968;48.178;11.566;2023-09-19T12:31:49;17.75;;;5.25;;
73670;SDS011;61968;48.178;11.566;2023-09-19T12:34:21;20.38;;;10.50;;
73670;SDS011;61968;48.178;11.566;2023-09-19T12:37:03;9.52;;;4.57;;
73670;SDS011;61968;48.178;11.566;2023-09-19T12:39:31;7.15;;;4.05;;
73670;SDS011;61968;48.178;11.566;2023-09-19T12:41:58;3.10;;;2.28;;
73670;SDS011;61968;48.178;11.566;2023-09-19T12:44:29;5.38;;;2.85;;
73670;SDS011;61968;48.178;11.566;2023-09-19T12:46:56;5.10;;;1.50;;
73670;SDS011;61968;48.178;11.566;2023-09-19T12:49:25;3.45;;;1.40;;
73670;SDS011;61968;48.178;11.566;2023-09-19T12:51:54;4.72;;;1.23;;
73670;SDS011;61968;48.178;11.566;2023-09-19T12:54:21;8.50;;;2.00;;
73670;SDS011;61968;48.178;11.566;2023-09-19T12:56:50;2.17;;;1.98;;
73670;SDS011;61968;48.178;11.566;2023-09-19T12:59:19;4.80;;;1.80;;
73670;SDS011;61968;48.178;11.566;2023-09-19T13:02:03;3.13;;;1.52;;
73670;SDS011;61968;48.178;11.566;2023-09-19T13:04:32;7.28;;;1.90;;
73670;SDS011;61968;48.178;11.566;2023-09-19T13:07:05;4.88;;;1.40;;
73670;SDS011;61968;48.178;11.566;2023-09-19T13:09:32;2.35;;;0.80;;
73670;SDS011;61968;48.178;11.566;2023-09-19T13:12:00;4.30;;;1.17;;
73670;SDS011;61968;48.178;11.566;2023-09-19T13:14:28;1.23;;;1.13;;
73670;SDS011;61968;48.178;11.566;2023-09-19T13:16:57;2.55;;;0.93;;
73670;SDS011;61968;48.178;11.566;2023-09-19T13:19:43;2.78;;;1.00;;
73670;SDS011;61968;48.178;11.566;2023-09-19T13:25:03;2.10;;;1.20;;
73670;SDS011;61968;48.178;11.566;2023-09-19T13:27:31;1.60;;;1.13;;
73670;SDS011;61968;48.178;11.566;2023-09-19T13:29:58;0.50;;;0.50;;
73670;SDS011;61968;48.178;11.566;2023-09-19T13:32:25;1.55;;;0.90;;
73670;SDS011;61968;48.178;11.566;2023-09-19T13:34:53;2.30;;;0.82;;
73670;SDS011;61968;48.178;11.566;2023-09-19T13:37:20;1.17;;;1.05;;
73670;SDS011;61968;48.178;11.566;2023-09-19T13:39:47;3.60;;;0.60;;
73670;SDS011;61968;48.178;11.566;2023-09-19T13:42:13;1.02;;;0.88;;
73670;SDS011;61968;48.178;11.566;2023-09-19T13:44:41;0.85;;;0.82;;
73670;SDS011;61968;48.178;11.566;2023-09-19T13:47:08;1.45;;;0.80;;
73670;SDS011;61968;48.178;11.566;2023-09-19T13:49:35;1.58;;;0.95;;
73670;SDS011;61968;48.178;11.566;2023-09-19T13:52:03;2.92;;;1.45;;
73670;SDS011;61968;48.178;11.566;2023-09-19T13:54:30;3.65;;;1.02;;
73670;SDS011;61968;48.178;11.566;2023-09-19T13:56:57;1.75;;;0.90;;
73670;SDS011;61968;48.178;11.566;2023-09-19T13:59:23;2.15;;;0.80;;
73670;SDS011;61968;48.178;11.566;2023-09-19T14:01:50;2.60;;;0.90;;
73670;SDS011;61968;48.178;11.566;2023-09-19T14:04:18;0.80;;;0.80;;
73670;SDS011;61968;48.178;11.566;2023-09-19T14:06:46;3.67;;;1.17;;
73670;SDS011;61968;48.178;11.566;2023-09-19T14:09:13;2.65;;;1.00;;
73670;SDS011;61968;48.178;11.566;2023-09-19T14:11:41;1.33;;;0.98;;
73670;SDS011;61968;48.178;11.566;2023-09-19T14:14:11;1.45;;;1.10;;
73670;SDS011;61968;48.178;11.566;2023-09-19T14:16:37;5.80;;;1.63;;
73670;SDS011;61968;48.178;11.566;2023-09-19T14:19:05;1.58;;;1.10;;
73670;SDS011;61968;48.178;11.566;2023-09-19T14:21:33;3.05;;;1.48;;
73670;SDS011;61968;48.178;11.566;2023-09-19T14:24:01;1.77;;;1.00;;
73670;SDS011;61968;48.178;11.566;2023-09-19T14:26:29;5.53;;;1.20;;
73670;SDS011;61968;48.178;11.566;2023-09-19T14:28:55;0.82;;;0.73;;
73670;SDS011;61968;48.178;11.566;2023-09-19T14:31:22;1.30;;;1.15;;
73670;SDS011;61968;48.178;11.566;2023-09-19T14:33:53;2.30;;;1.10;;
73670;SDS011;61968;48.178;11.566;2023-09-19T14:38:47;1.65;;;1.17;;
73670;SDS011;61968;48.178;11.566;2023-09-19T14:41:13;3.38;;;1.80;;
73670;SDS011;61968;48.178;11.566;2023-09-19T14:43:41;5.22;;;2.17;;
73670;SDS011;61968;48.178;11.566;2023-09-19T14:46:07;0.80;;;0.80;;
73670;SDS011;61968;48.178;11.566;2023-09-19T14:48:35;1.10;;;1.00;;
73670;SDS011;61968;48.178;11.566;2023-09-19T14:51:02;1.35;;;0.73;;
73670;SDS011;61968;48.178;11.566;2023-09-19T14:53:29;4.03;;;1.10;;
73670;SDS011;61968;48.178;11.566;2023-09-19T14:55:55;1.00;;;1.00;;
73670;SDS011;61968;48.178;11.566;2023-09-19T14:58:21;1.83;;;1.08;;
73670;SDS011;61968;48.178;11.566;2023-09-19T15:00:52;2.15;;;1.15;;
73670;SDS011;61968;48.178;11.566;2023-09-19T15:03:19;1.60;;;0.60;;
73670;SDS011;61968;48.178;11.566;2023-09-19T15:05:45;0.85;;;0.85;;